CPA358 EGCC-VHHH
Flight info
| Callsign | CPA358 |
|---|---|
| Flight time | N/A |
| Altitude | 31000 |
| Route | SONEX L975 DESIG L603 LAMSO DCT TENLI DCT KUMER DCT OMELO DCT ODLIV DCT OMIFU DCT SAGAN DCT ETNOG/N0488F330 DCT ROMAG DCT UDROS DCT CRM UM11 REBLO M11 MATAL T916 BALUN/K0907F330 T916 KUNAS/K0898F350 N193 SR L163 TISIB L141 KAMUD/K0896S1070 W186 SADAN Y1 MEPEP/K0902S1130 Y1 OMBON W245 OVRAL B330 KWE W181 DUDIT A599 POU R473 SIERA |
| Aircraft | B77W/H-SDE1E2E3FGHIJ2J3J4J5M1RWXY/LB1D1 |
Departure
| Time | 2026-05-04 22:35 |
|---|---|
| Airport | Manchester Airport (EGCC) |
Arrival
| Time | N/A |
|---|---|
| Airport | Hong Kong International Airport (VHHH) |
| Time | Latitude | Longitude | Altitude | Speed | Heading |
|---|---|---|---|---|---|
| 2026-05-04 22:07 | 53.36802 | -2.28678 | 252 ft | 0 kts | 315° |
| 2026-05-04 22:21 | 53.36802 | -2.28677 | 252 ft | 1 kts | 315° |
| 2026-05-04 22:22 | 53.36792 | -2.28660 | 252 ft | 3 kts | 315° |
| 2026-05-04 22:22 | 53.36778 | -2.28636 | 252 ft | 3 kts | 315° |
| 2026-05-04 22:22 | 53.36764 | -2.28613 | 252 ft | 3 kts | 306° |
| 2026-05-04 22:22 | 53.36757 | -2.28587 | 252 ft | 3 kts | 261° |
| 2026-05-04 22:23 | 53.36762 | -2.28564 | 252 ft | 1 kts | 225° |
| 2026-05-04 22:23 | 53.36772 | -2.28549 | 252 ft | 3 kts | 225° |
| 2026-05-04 22:23 | 53.36786 | -2.28525 | 252 ft | 3 kts | 225° |
| 2026-05-04 22:23 | 53.36800 | -2.28501 | 252 ft | 3 kts | 225° |
| 2026-05-04 22:24 | 53.36809 | -2.28486 | 252 ft | 0 kts | 225° |
| 2026-05-04 22:27 | 53.36798 | -2.28505 | 252 ft | 8 kts | 225° |
| 2026-05-04 22:27 | 53.36741 | -2.28600 | 252 ft | 12 kts | 225° |
| 2026-05-04 22:27 | 53.36681 | -2.28697 | 252 ft | 12 kts | 224° |
| 2026-05-04 22:27 | 53.36616 | -2.28779 | 252 ft | 12 kts | 186° |
| 2026-05-04 22:28 | 53.36547 | -2.28703 | 252 ft | 12 kts | 135° |
| 2026-05-04 22:28 | 53.36488 | -2.28603 | 252 ft | 12 kts | 135° |
| 2026-05-04 22:28 | 53.36430 | -2.28499 | 252 ft | 13 kts | 126° |
| 2026-05-04 22:28 | 53.36376 | -2.28351 | 252 ft | 16 kts | 131° |
| 2026-05-04 22:29 | 53.36297 | -2.28215 | 252 ft | 16 kts | 135° |
| 2026-05-04 22:29 | 53.36217 | -2.28082 | 252 ft | 16 kts | 135° |
| 2026-05-04 22:29 | 53.36134 | -2.27941 | 252 ft | 19 kts | 134° |
| 2026-05-04 22:29 | 53.36070 | -2.27869 | 252 ft | 7 kts | 164° |
| 2026-05-04 22:30 | 53.36020 | -2.27864 | 252 ft | 9 kts | 180° |
| 2026-05-04 22:30 | 53.35916 | -2.27842 | 252 ft | 21 kts | 174° |
| 2026-05-04 22:30 | 53.35797 | -2.27713 | 252 ft | 21 kts | 127° |
| 2026-05-04 22:30 | 53.35669 | -2.27589 | 252 ft | 21 kts | 144° |
| 2026-05-04 22:31 | 53.35633 | -2.27418 | 258 ft | 17 kts | 51° |
| 2026-05-04 22:31 | 53.35713 | -2.27266 | 257 ft | 17 kts | 48° |
| 2026-05-04 22:31 | 53.35788 | -2.27108 | 257 ft | 17 kts | 56° |
| 2026-05-04 22:31 | 53.35855 | -2.26940 | 258 ft | 17 kts | 56° |
| 2026-05-04 22:32 | 53.35931 | -2.26760 | 259 ft | 21 kts | 54° |
| 2026-05-04 22:32 | 53.36019 | -2.26571 | 258 ft | 21 kts | 51° |
| 2026-05-04 22:32 | 53.36110 | -2.26384 | 256 ft | 21 kts | 51° |
| 2026-05-04 22:32 | 53.36211 | -2.26215 | 255 ft | 21 kts | 44° |
| 2026-05-04 22:33 | 53.36265 | -2.26092 | 255 ft | 8 kts | 73° |
| 2026-05-04 22:33 | 53.36267 | -2.26072 | 255 ft | 1 kts | 83° |
| 2026-05-04 22:33 | 53.36276 | -2.25977 | 257 ft | 12 kts | 79° |
| 2026-05-04 22:33 | 53.36284 | -2.25840 | 261 ft | 12 kts | 102° |
| 2026-05-04 22:34 | 53.36232 | -2.25748 | 265 ft | 11 kts | 179° |
| 2026-05-04 22:34 | 53.36208 | -2.25774 | 264 ft | 0 kts | 227° |
| 2026-05-04 22:34 | 53.36164 | -2.25859 | 264 ft | 35 kts | 229° |
| 2026-05-04 22:34 | 53.35822 | -2.26568 | 269 ft | 120 kts | 231° |
| 2026-05-04 22:35 | 53.35124 | -2.28019 | 251 ft | 198 kts | 231° |
| 2026-05-04 22:35 | 53.34207 | -2.29914 | 943 ft | 210 kts | 232° |
| 2026-05-04 22:35 | 53.33282 | -2.31844 | 1962 ft | 218 kts | 233° |
| 2026-05-04 22:35 | 53.32348 | -2.33939 | 2402 ft | 233 kts | 245° |
| 2026-05-04 22:36 | 53.32042 | -2.36560 | 2793 ft | 237 kts | 278° |
| 2026-05-04 22:36 | 53.32665 | -2.39104 | 3300 ft | 243 kts | 310° |
| 2026-05-04 22:36 | 53.34065 | -2.40729 | 3731 ft | 253 kts | 341° |
| 2026-05-04 22:36 | 53.35779 | -2.41567 | 4192 ft | 261 kts | 342° |
| 2026-05-04 22:37 | 53.37528 | -2.42460 | 4875 ft | 264 kts | 341° |
| 2026-05-04 22:37 | 53.39289 | -2.43390 | 5581 ft | 266 kts | 341° |
| 2026-05-04 22:37 | 53.41063 | -2.44333 | 6332 ft | 268 kts | 341° |
| 2026-05-04 22:37 | 53.42848 | -2.45283 | 7007 ft | 269 kts | 343° |
| 2026-05-04 22:38 | 53.44717 | -2.45510 | 7440 ft | 278 kts | 13° |
| 2026-05-04 22:38 | 53.46400 | -2.43911 | 7955 ft | 286 kts | 47° |
| 2026-05-04 22:38 | 53.47314 | -2.40957 | 8542 ft | 290 kts | 78° |
| 2026-05-04 22:38 | 53.47624 | -2.37589 | 9025 ft | 296 kts | 81° |
| 2026-05-04 22:39 | 53.47953 | -2.34155 | 9641 ft | 300 kts | 79° |
| 2026-05-04 22:39 | 53.48322 | -2.30693 | 10278 ft | 302 kts | 79° |
| 2026-05-04 22:39 | 53.48713 | -2.27196 | 10570 ft | 318 kts | 79° |
| 2026-05-04 22:39 | 53.49141 | -2.23425 | 10735 ft | 339 kts | 79° |
| 2026-05-04 22:40 | 53.49580 | -2.19412 | 10886 ft | 359 kts | 79° |
| 2026-05-04 22:40 | 53.50023 | -2.15172 | 11157 ft | 376 kts | 80° |
| 2026-05-04 22:40 | 53.50478 | -2.10776 | 11681 ft | 386 kts | 80° |
| 2026-05-04 22:40 | 53.50943 | -2.06302 | 12331 ft | 392 kts | 80° |
| 2026-05-04 22:41 | 53.51413 | -2.01779 | 13059 ft | 395 kts | 80° |
| 2026-05-04 22:41 | 53.51887 | -1.97202 | 13816 ft | 399 kts | 80° |
| 2026-05-04 22:41 | 53.52276 | -1.92577 | 14422 ft | 402 kts | 87° |
| 2026-05-04 22:41 | 53.52216 | -1.87860 | 15023 ft | 406 kts | 97° |
| 2026-05-04 22:42 | 53.51721 | -1.83176 | 15668 ft | 409 kts | 106° |
| 2026-05-04 22:42 | 53.50901 | -1.78586 | 16323 ft | 411 kts | 108° |
| 2026-05-04 22:42 | 53.50053 | -1.73973 | 16938 ft | 416 kts | 108° |
| 2026-05-04 22:42 | 53.49212 | -1.69307 | 17552 ft | 420 kts | 108° |
| 2026-05-04 22:43 | 53.48660 | -1.66188 | 17976 ft | 422 kts | 107° |
| 2026-05-04 22:43 | 53.47825 | -1.61437 | 18565 ft | 426 kts | 107° |
| 2026-05-04 22:43 | 53.46983 | -1.56658 | 19035 ft | 428 kts | 107° |
| 2026-05-04 22:43 | 53.46124 | -1.51859 | 19034 ft | 431 kts | 108° |
| 2026-05-04 22:44 | 53.44962 | -1.45436 | 19654 ft | 435 kts | 108° |
| 2026-05-04 22:44 | 53.44083 | -1.40585 | 20355 ft | 434 kts | 108° |
| 2026-05-04 22:44 | 53.43207 | -1.35744 | 21000 ft | 435 kts | 108° |
| 2026-05-04 22:44 | 53.42610 | -1.32455 | 21380 ft | 437 kts | 107° |
| 2026-05-04 22:45 | 53.41721 | -1.27566 | 21907 ft | 440 kts | 107° |
| 2026-05-04 22:45 | 53.39982 | -1.17733 | 22942 ft | 446 kts | 107° |
| 2026-05-04 22:45 | 53.39076 | -1.12746 | 23480 ft | 448 kts | 107° |
| 2026-05-04 22:46 | 53.38155 | -1.07750 | 23938 ft | 450 kts | 107° |
| 2026-05-04 22:46 | 53.37224 | -1.02727 | 24368 ft | 453 kts | 107° |
| 2026-05-04 22:46 | 53.36287 | -0.97671 | 24752 ft | 456 kts | 107° |
| 2026-05-04 22:46 | 53.35342 | -0.92575 | 25126 ft | 459 kts | 107° |
| 2026-05-04 22:47 | 53.34392 | -0.87457 | 25548 ft | 461 kts | 107° |
| 2026-05-04 22:47 | 53.33438 | -0.82324 | 25984 ft | 463 kts | 107° |
| 2026-05-04 22:47 | 53.32477 | -0.77163 | 26424 ft | 463 kts | 107° |
| 2026-05-04 22:47 | 53.31516 | -0.72018 | 26854 ft | 465 kts | 107° |
| 2026-05-04 22:48 | 53.30548 | -0.66856 | 27242 ft | 467 kts | 107° |
| 2026-05-04 22:48 | 53.29569 | -0.61661 | 27584 ft | 469 kts | 107° |
| 2026-05-04 22:48 | 53.28583 | -0.56447 | 27923 ft | 471 kts | 107° |
| 2026-05-04 22:48 | 53.27605 | -0.51274 | 28279 ft | 473 kts | 107° |
| 2026-05-04 22:49 | 53.26608 | -0.46023 | 28640 ft | 475 kts | 107° |
| 2026-05-04 22:49 | 53.25612 | -0.40773 | 28965 ft | 476 kts | 107° |
| 2026-05-04 22:49 | 53.24612 | -0.35479 | 29215 ft | 480 kts | 108° |
| 2026-05-04 22:49 | 53.23600 | -0.30130 | 29272 ft | 486 kts | 108° |
| 2026-05-04 22:50 | 53.22570 | -0.24736 | 29518 ft | 488 kts | 108° |
| 2026-05-04 22:50 | 53.21532 | -0.19357 | 29949 ft | 486 kts | 108° |
| 2026-05-04 22:50 | 53.20496 | -0.14010 | 30410 ft | 482 kts | 108° |
| 2026-05-04 22:50 | 53.19470 | -0.08711 | 30825 ft | 479 kts | 108° |
| 2026-05-04 22:51 | 53.18443 | -0.03424 | 31002 ft | 482 kts | 108° |
| 2026-05-04 22:51 | 53.17409 | 0.01900 | 31035 ft | 483 kts | 108° |
| 2026-05-04 22:51 | 53.15329 | 0.12596 | 31035 ft | 485 kts | 108° |